sensor_id;sensor_type;location;lat;lon;timestamp;P1;durP1;ratioP1;P2;durP2;ratioP2
73023;SDS011;61199;47.526;8.538;2022-11-20T00:01:11;15.00;;;5.80;;
73023;SDS011;61199;47.526;8.538;2022-11-20T00:03:40;12.73;;;5.97;;
73023;SDS011;61199;47.526;8.538;2022-11-20T00:06:08;11.13;;;5.30;;
73023;SDS011;61199;47.526;8.538;2022-11-20T00:08:36;7.90;;;5.43;;
73023;SDS011;61199;47.526;8.538;2022-11-20T00:11:13;9.30;;;4.77;;
73023;SDS011;61199;47.526;8.538;2022-11-20T00:13:47;12.30;;;5.83;;
73023;SDS011;61199;47.526;8.538;2022-11-20T00:16:16;9.57;;;5.20;;
73023;SDS011;61199;47.526;8.538;2022-11-20T00:18:45;14.20;;;5.83;;
73023;SDS011;61199;47.526;8.538;2022-11-20T00:21:13;7.03;;;4.70;;
73023;SDS011;61199;47.526;8.538;2022-11-20T00:23:44;11.07;;;5.70;;
73023;SDS011;61199;47.526;8.538;2022-11-20T00:26:11;10.03;;;5.43;;
73023;SDS011;61199;47.526;8.538;2022-11-20T00:28:40;14.60;;;6.53;;
73023;SDS011;61199;47.526;8.538;2022-11-20T00:31:08;9.50;;;5.20;;
73023;SDS011;61199;47.526;8.538;2022-11-20T00:33:36;11.70;;;6.47;;
73023;SDS011;61199;47.526;8.538;2022-11-20T00:36:04;14.37;;;6.10;;
73023;SDS011;61199;47.526;8.538;2022-11-20T00:38:32;11.23;;;7.03;;
73023;SDS011;61199;47.526;8.538;2022-11-20T00:41:00;10.00;;;5.23;;
73023;SDS011;61199;47.526;8.538;2022-11-20T00:43:28;12.93;;;4.53;;
73023;SDS011;61199;47.526;8.538;2022-11-20T00:46:02;7.50;;;4.60;;
73023;SDS011;61199;47.526;8.538;2022-11-20T00:48:29;10.23;;;5.07;;
73023;SDS011;61199;47.526;8.538;2022-11-20T00:50:56;7.87;;;5.07;;
73023;SDS011;61199;47.526;8.538;2022-11-20T00:53:23;7.50;;;5.17;;
73023;SDS011;61199;47.526;8.538;2022-11-20T00:56:10;6.10;;;4.33;;
73023;SDS011;61199;47.526;8.538;2022-11-20T00:58:39;9.57;;;5.33;;
73023;SDS011;61199;47.526;8.538;2022-11-20T01:01:09;10.10;;;5.37;;
73023;SDS011;61199;47.526;8.538;2022-11-20T01:03:38;8.70;;;6.07;;
73023;SDS011;61199;47.526;8.538;2022-11-20T01:06:07;9.80;;;6.03;;
73023;SDS011;61199;47.526;8.538;2022-11-20T01:08:42;12.40;;;5.07;;
73023;SDS011;61199;47.526;8.538;2022-11-20T01:11:14;8.93;;;5.00;;
73023;SDS011;61199;47.526;8.538;2022-11-20T01:13:44;8.13;;;4.97;;
73023;SDS011;61199;47.526;8.538;2022-11-20T01:16:31;7.40;;;4.70;;
73023;SDS011;61199;47.526;8.538;2022-11-20T01:18:59;7.70;;;4.20;;
73023;SDS011;61199;47.526;8.538;2022-11-20T01:21:31;10.20;;;4.67;;
73023;SDS011;61199;47.526;8.538;2022-11-20T01:24:00;6.40;;;4.43;;
73023;SDS011;61199;47.526;8.538;2022-11-20T01:26:28;9.20;;;5.03;;
73023;SDS011;61199;47.526;8.538;2022-11-20T01:28:56;8.83;;;5.60;;
73023;SDS011;61199;47.526;8.538;2022-11-20T01:31:25;12.10;;;5.83;;
73023;SDS011;61199;47.526;8.538;2022-11-20T01:34:00;8.70;;;5.40;;
73023;SDS011;61199;47.526;8.538;2022-11-20T01:36:29;7.73;;;4.07;;
73023;SDS011;61199;47.526;8.538;2022-11-20T01:39:01;9.17;;;5.03;;
73023;SDS011;61199;47.526;8.538;2022-11-20T01:41:30;10.70;;;5.10;;
73023;SDS011;61199;47.526;8.538;2022-11-20T01:44:18;8.00;;;4.57;;
73023;SDS011;61199;47.526;8.538;2022-11-20T01:46:56;7.83;;;4.20;;
73023;SDS011;61199;47.526;8.538;2022-11-20T01:49:32;7.13;;;4.23;;
73023;SDS011;61199;47.526;8.538;2022-11-20T01:52:07;7.33;;;3.63;;
73023;SDS011;61199;47.526;8.538;2022-11-20T01:54:42;6.17;;;3.03;;
73023;SDS011;61199;47.526;8.538;2022-11-20T01:57:13;6.83;;;3.33;;
73023;SDS011;61199;47.526;8.538;2022-11-20T01:59:44;5.00;;;2.97;;
73023;SDS011;61199;47.526;8.538;2022-11-20T02:02:16;4.83;;;3.43;;
73023;SDS011;61199;47.526;8.538;2022-11-20T02:04:42;6.87;;;3.70;;
73023;SDS011;61199;47.526;8.538;2022-11-20T02:07:09;5.97;;;2.83;;
73023;SDS011;61199;47.526;8.538;2022-11-20T02:09:36;5.73;;;2.87;;
73023;SDS011;61199;47.526;8.538;2022-11-20T02:12:03;5.40;;;2.77;;
73023;SDS011;61199;47.526;8.538;2022-11-20T02:14:30;5.90;;;3.30;;
73023;SDS011;61199;47.526;8.538;2022-11-20T02:16:56;5.50;;;2.77;;
73023;SDS011;61199;47.526;8.538;2022-11-20T02:19:27;4.87;;;3.00;;
73023;SDS011;61199;47.526;8.538;2022-11-20T02:21:59;3.37;;;2.50;;
73023;SDS011;61199;47.526;8.538;2022-11-20T02:24:31;4.83;;;2.70;;
73023;SDS011;61199;47.526;8.538;2022-11-20T02:27:02;5.97;;;2.73;;
73023;SDS011;61199;47.526;8.538;2022-11-20T02:29:32;4.47;;;2.80;;
73023;SDS011;61199;47.526;8.538;2022-11-20T02:32:03;6.10;;;2.87;;
73023;SDS011;61199;47.526;8.538;2022-11-20T02:34:30;3.60;;;2.80;;
73023;SDS011;61199;47.526;8.538;2022-11-20T02:36:56;9.33;;;3.13;;
73023;SDS011;61199;47.526;8.538;2022-11-20T02:39:25;5.10;;;2.63;;
73023;SDS011;61199;47.526;8.538;2022-11-20T02:41:53;6.40;;;2.60;;
73023;SDS011;61199;47.526;8.538;2022-11-20T02:44:21;6.70;;;2.80;;
73023;SDS011;61199;47.526;8.538;2022-11-20T02:46:48;9.50;;;3.30;;
73023;SDS011;61199;47.526;8.538;2022-11-20T02:49:14;5.73;;;3.00;;
73023;SDS011;61199;47.526;8.538;2022-11-20T02:51:42;3.50;;;2.00;;
73023;SDS011;61199;47.526;8.538;2022-11-20T02:54:08;3.70;;;2.40;;
73023;SDS011;61199;47.526;8.538;2022-11-20T02:56:37;3.80;;;2.70;;
73023;SDS011;61199;47.526;8.538;2022-11-20T02:59:04;5.50;;;2.57;;
73023;SDS011;61199;47.526;8.538;2022-11-20T03:01:30;4.70;;;2.40;;
73023;SDS011;61199;47.526;8.538;2022-11-20T03:03:57;8.97;;;2.77;;
73023;SDS011;61199;47.526;8.538;2022-11-20T03:06:23;6.33;;;2.63;;
73023;SDS011;61199;47.526;8.538;2022-11-20T03:08:49;3.90;;;2.73;;
73023;SDS011;61199;47.526;8.538;2022-11-20T03:11:16;5.00;;;2.60;;
73023;SDS011;61199;47.526;8.538;2022-11-20T03:13:43;3.43;;;2.50;;
73023;SDS011;61199;47.526;8.538;2022-11-20T03:16:10;4.97;;;2.57;;
73023;SDS011;61199;47.526;8.538;2022-11-20T03:18:39;3.87;;;2.50;;
73023;SDS011;61199;47.526;8.538;2022-11-20T03:21:06;4.50;;;2.57;;
73023;SDS011;61199;47.526;8.538;2022-11-20T03:23:34;6.13;;;2.30;;
73023;SDS011;61199;47.526;8.538;2022-11-20T03:28:57;6.73;;;3.30;;
73023;SDS011;61199;47.526;8.538;2022-11-20T03:31:26;5.73;;;2.63;;
73023;SDS011;61199;47.526;8.538;2022-11-20T03:33:56;7.17;;;3.07;;
73023;SDS011;61199;47.526;8.538;2022-11-20T03:36:24;4.10;;;2.63;;
73023;SDS011;61199;47.526;8.538;2022-11-20T03:38:52;4.87;;;3.07;;
73023;SDS011;61199;47.526;8.538;2022-11-20T03:41:20;4.20;;;2.50;;
73023;SDS011;61199;47.526;8.538;2022-11-20T03:43:48;3.73;;;2.50;;
73023;SDS011;61199;47.526;8.538;2022-11-20T03:46:16;4.70;;;2.30;;
73023;SDS011;61199;47.526;8.538;2022-11-20T03:48:42;4.47;;;2.70;;
73023;SDS011;61199;47.526;8.538;2022-11-20T03:51:17;3.60;;;2.80;;
73023;SDS011;61199;47.526;8.538;2022-11-20T03:53:46;2.80;;;2.27;;
73023;SDS011;61199;47.526;8.538;2022-11-20T03:56:14;4.00;;;2.43;;
73023;SDS011;61199;47.526;8.538;2022-11-20T03:58:42;3.10;;;2.20;;
73023;SDS011;61199;47.526;8.538;2022-11-20T04:01:10;4.83;;;2.63;;
73023;SDS011;61199;47.526;8.538;2022-11-20T04:03:39;6.87;;;2.67;;
73023;SDS011;61199;47.526;8.538;2022-11-20T04:06:08;4.10;;;2.20;;
73023;SDS011;61199;47.526;8.538;2022-11-20T04:08:37;5.17;;;2.30;;
73023;SDS011;61199;47.526;8.538;2022-11-20T04:13:36;6.47;;;3.10;;
73023;SDS011;61199;47.526;8.538;2022-11-20T04:16:03;7.30;;;3.03;;
73023;SDS011;61199;47.526;8.538;2022-11-20T04:18:30;3.70;;;2.47;;
73023;SDS011;61199;47.526;8.538;2022-11-20T04:20:57;5.90;;;2.50;;
73023;SDS011;61199;47.526;8.538;2022-11-20T04:23:24;6.90;;;2.70;;
73023;SDS011;61199;47.526;8.538;2022-11-20T04:25:54;6.00;;;2.60;;
73023;SDS011;61199;47.526;8.538;2022-11-20T04:28:20;4.73;;;2.30;;
73023;SDS011;61199;47.526;8.538;2022-11-20T04:30:47;5.37;;;2.83;;
73023;SDS011;61199;47.526;8.538;2022-11-20T04:33:13;6.53;;;2.50;;
73023;SDS011;61199;47.526;8.538;2022-11-20T04:35:40;4.03;;;2.30;;
73023;SDS011;61199;47.526;8.538;2022-11-20T04:38:06;6.30;;;2.90;;
73023;SDS011;61199;47.526;8.538;2022-11-20T04:40:33;6.10;;;2.60;;
73023;SDS011;61199;47.526;8.538;2022-11-20T04:42:59;6.53;;;3.03;;
73023;SDS011;61199;47.526;8.538;2022-11-20T04:45:25;3.47;;;2.60;;
73023;SDS011;61199;47.526;8.538;2022-11-20T04:47:52;5.83;;;2.73;;
73023;SDS011;61199;47.526;8.538;2022-11-20T04:50:18;9.10;;;3.47;;
73023;SDS011;61199;47.526;8.538;2022-11-20T04:52:45;5.23;;;2.80;;
73023;SDS011;61199;47.526;8.538;2022-11-20T04:55:11;4.00;;;2.70;;
73023;SDS011;61199;47.526;8.538;2022-11-20T04:57:37;9.67;;;3.00;;
73023;SDS011;61199;47.526;8.538;2022-11-20T05:00:04;8.10;;;3.13;;
73023;SDS011;61199;47.526;8.538;2022-11-20T05:02:31;7.10;;;2.63;;
73023;SDS011;61199;47.526;8.538;2022-11-20T05:04:58;6.13;;;2.83;;
73023;SDS011;61199;47.526;8.538;2022-11-20T05:07:24;4.80;;;2.80;;
73023;SDS011;61199;47.526;8.538;2022-11-20T05:09:50;5.90;;;3.00;;
73023;SDS011;61199;47.526;8.538;2022-11-20T05:12:17;4.47;;;2.80;;
73023;SDS011;61199;47.526;8.538;2022-11-20T05:14:43;6.90;;;3.57;;
73023;SDS011;61199;47.526;8.538;2022-11-20T05:17:11;7.50;;;3.50;;
73023;SDS011;61199;47.526;8.538;2022-11-20T05:19:38;5.50;;;3.30;;
73023;SDS011;61199;47.526;8.538;2022-11-20T05:22:04;24.13;;;5.73;;
73023;SDS011;61199;47.526;8.538;2022-11-20T05:24:31;8.33;;;3.90;;
73023;SDS011;61199;47.526;8.538;2022-11-20T05:26:57;5.63;;;3.23;;
73023;SDS011;61199;47.526;8.538;2022-11-20T05:29:24;6.43;;;3.20;;
73023;SDS011;61199;47.526;8.538;2022-11-20T05:31:50;5.27;;;3.43;;
73023;SDS011;61199;47.526;8.538;2022-11-20T05:34:17;5.37;;;3.13;;
73023;SDS011;61199;47.526;8.538;2022-11-20T05:36:43;6.70;;;3.00;;
73023;SDS011;61199;47.526;8.538;2022-11-20T05:39:10;6.50;;;2.90;;
73023;SDS011;61199;47.526;8.538;2022-11-20T05:41:36;5.83;;;3.30;;
73023;SDS011;61199;47.526;8.538;2022-11-20T05:44:02;4.43;;;3.07;;
73023;SDS011;61199;47.526;8.538;2022-11-20T05:46:29;4.77;;;3.40;;
73023;SDS011;61199;47.526;8.538;2022-11-20T05:48:56;6.97;;;3.20;;
73023;SDS011;61199;47.526;8.538;2022-11-20T05:51:23;7.07;;;3.40;;
73023;SDS011;61199;47.526;8.538;2022-11-20T05:53:50;6.90;;;3.47;;
73023;SDS011;61199;47.526;8.538;2022-11-20T05:56:20;9.50;;;3.57;;
73023;SDS011;61199;47.526;8.538;2022-11-20T05:58:47;9.90;;;3.60;;
73023;SDS011;61199;47.526;8.538;2022-11-20T06:03:43;5.90;;;3.37;;
73023;SDS011;61199;47.526;8.538;2022-11-20T06:06:14;6.63;;;3.83;;
73023;SDS011;61199;47.526;8.538;2022-11-20T06:08:41;8.83;;;3.70;;
73023;SDS011;61199;47.526;8.538;2022-11-20T06:11:10;6.00;;;4.07;;
73023;SDS011;61199;47.526;8.538;2022-11-20T06:13:38;5.67;;;3.17;;
73023;SDS011;61199;47.526;8.538;2022-11-20T06:16:08;6.27;;;3.00;;
73023;SDS011;61199;47.526;8.538;2022-11-20T06:18:36;5.77;;;3.43;;
73023;SDS011;61199;47.526;8.538;2022-11-20T06:21:07;4.03;;;2.50;;
73023;SDS011;61199;47.526;8.538;2022-11-20T06:23:36;4.47;;;3.10;;
73023;SDS011;61199;47.526;8.538;2022-11-20T06:26:03;3.87;;;2.60;;
73023;SDS011;61199;47.526;8.538;2022-11-20T06:28:31;6.93;;;2.93;;
73023;SDS011;61199;47.526;8.538;2022-11-20T06:30:58;4.70;;;2.43;;
73023;SDS011;61199;47.526;8.538;2022-11-20T06:33:25;6.80;;;2.67;;
73023;SDS011;61199;47.526;8.538;2022-11-20T06:35:51;5.60;;;3.00;;
73023;SDS011;61199;47.526;8.538;2022-11-20T06:38:25;3.83;;;2.60;;
73023;SDS011;61199;47.526;8.538;2022-11-20T06:40:53;15.07;;;3.33;;
73023;SDS011;61199;47.526;8.538;2022-11-20T06:43:20;5.40;;;2.97;;
73023;SDS011;61199;47.526;8.538;2022-11-20T06:45:52;6.37;;;3.20;;
73023;SDS011;61199;47.526;8.538;2022-11-20T06:48:19;6.27;;;3.77;;
73023;SDS011;61199;47.526;8.538;2022-11-20T06:50:46;6.77;;;3.47;;
73023;SDS011;61199;47.526;8.538;2022-11-20T06:53:12;6.63;;;3.70;;
73023;SDS011;61199;47.526;8.538;2022-11-20T06:55:42;5.33;;;3.33;;
73023;SDS011;61199;47.526;8.538;2022-11-20T06:58:10;5.63;;;3.33;;
73023;SDS011;61199;47.526;8.538;2022-11-20T07:00:36;8.00;;;3.00;;
73023;SDS011;61199;47.526;8.538;2022-11-20T07:03:03;4.87;;;3.17;;
73023;SDS011;61199;47.526;8.538;2022-11-20T07:05:30;5.37;;;3.30;;
73023;SDS011;61199;47.526;8.538;2022-11-20T07:07:57;4.50;;;3.13;;
73023;SDS011;61199;47.526;8.538;2022-11-20T07:10:24;4.40;;;2.60;;
73023;SDS011;61199;47.526;8.538;2022-11-20T07:12:51;4.60;;;2.63;;
73023;SDS011;61199;47.526;8.538;2022-11-20T07:15:19;4.87;;;2.77;;
73023;SDS011;61199;47.526;8.538;2022-11-20T07:17:46;6.23;;;3.10;;
73023;SDS011;61199;47.526;8.538;2022-11-20T07:20:13;5.63;;;3.10;;
73023;SDS011;61199;47.526;8.538;2022-11-20T07:22:40;7.23;;;3.20;;
73023;SDS011;61199;47.526;8.538;2022-11-20T07:25:07;6.33;;;3.27;;
73023;SDS011;61199;47.526;8.538;2022-11-20T07:27:34;5.40;;;3.00;;
73023;SDS011;61199;47.526;8.538;2022-11-20T07:30:02;7.03;;;3.00;;
73023;SDS011;61199;47.526;8.538;2022-11-20T07:32:29;4.67;;;3.20;;
73023;SDS011;61199;47.526;8.538;2022-11-20T07:34:56;5.90;;;3.47;;
73023;SDS011;61199;47.526;8.538;2022-11-20T07:37:22;4.87;;;3.00;;
73023;SDS011;61199;47.526;8.538;2022-11-20T07:39:49;5.10;;;3.20;;
73023;SDS011;61199;47.526;8.538;2022-11-20T07:42:15;4.50;;;2.77;;
73023;SDS011;61199;47.526;8.538;2022-11-20T07:44:42;6.37;;;3.40;;
73023;SDS011;61199;47.526;8.538;2022-11-20T07:47:08;6.00;;;3.70;;
73023;SDS011;61199;47.526;8.538;2022-11-20T07:49:34;4.67;;;3.10;;
73023;SDS011;61199;47.526;8.538;2022-11-20T07:52:01;5.20;;;2.83;;
73023;SDS011;61199;47.526;8.538;2022-11-20T07:54:30;6.40;;;3.60;;
73023;SDS011;61199;47.526;8.538;2022-11-20T07:56:56;21.13;;;3.67;;
73023;SDS011;61199;47.526;8.538;2022-11-20T07:59:23;7.37;;;3.63;;
73023;SDS011;61199;47.526;8.538;2022-11-20T08:01:49;8.90;;;4.67;;
73023;SDS011;61199;47.526;8.538;2022-11-20T08:04:16;9.30;;;3.10;;
73023;SDS011;61199;47.526;8.538;2022-11-20T08:06:42;4.70;;;3.10;;
73023;SDS011;61199;47.526;8.538;2022-11-20T08:09:09;13.40;;;3.60;;
73023;SDS011;61199;47.526;8.538;2022-11-20T08:11:35;7.00;;;3.50;;
73023;SDS011;61199;47.526;8.538;2022-11-20T08:14:20;4.40;;;2.73;;
73023;SDS011;61199;47.526;8.538;2022-11-20T08:16:47;7.03;;;3.30;;
73023;SDS011;61199;47.526;8.538;2022-11-20T08:19:16;5.73;;;3.43;;
73023;SDS011;61199;47.526;8.538;2022-11-20T08:21:44;4.63;;;3.10;;
73023;SDS011;61199;47.526;8.538;2022-11-20T08:24:11;3.73;;;2.80;;
73023;SDS011;61199;47.526;8.538;2022-11-20T08:26:38;4.10;;;2.73;;
73023;SDS011;61199;47.526;8.538;2022-11-20T08:29:05;4.37;;;3.07;;
73023;SDS011;61199;47.526;8.538;2022-11-20T08:31:32;5.47;;;2.90;;
73023;SDS011;61199;47.526;8.538;2022-11-20T08:33:58;9.23;;;3.00;;
73023;SDS011;61199;47.526;8.538;2022-11-20T08:36:24;4.47;;;2.40;;
73023;SDS011;61199;47.526;8.538;2022-11-20T08:38:54;7.33;;;2.60;;
73023;SDS011;61199;47.526;8.538;2022-11-20T08:41:22;4.20;;;2.50;;
73023;SDS011;61199;47.526;8.538;2022-11-20T08:43:53;7.43;;;2.93;;
73023;SDS011;61199;47.526;8.538;2022-11-20T08:46:21;3.40;;;2.50;;
73023;SDS011;61199;47.526;8.538;2022-11-20T08:48:48;9.63;;;2.83;;
73023;SDS011;61199;47.526;8.538;2022-11-20T08:51:15;4.80;;;2.63;;
73023;SDS011;61199;47.526;8.538;2022-11-20T08:53:42;3.60;;;2.30;;
73023;SDS011;61199;47.526;8.538;2022-11-20T08:56:09;7.80;;;2.73;;
73023;SDS011;61199;47.526;8.538;2022-11-20T08:58:36;8.93;;;3.13;;
73023;SDS011;61199;47.526;8.538;2022-11-20T09:01:23;2.70;;;2.00;;
73023;SDS011;61199;47.526;8.538;2022-11-20T09:03:49;4.00;;;2.23;;
73023;SDS011;61199;47.526;8.538;2022-11-20T09:06:16;3.77;;;2.10;;
73023;SDS011;61199;47.526;8.538;2022-11-20T09:08:42;4.20;;;2.10;;
73023;SDS011;61199;47.526;8.538;2022-11-20T09:11:09;3.47;;;2.03;;
73023;SDS011;61199;47.526;8.538;2022-11-20T09:13:35;3.63;;;1.97;;
73023;SDS011;61199;47.526;8.538;2022-11-20T09:16:04;3.60;;;1.73;;
73023;SDS011;61199;47.526;8.538;2022-11-20T09:18:32;2.80;;;1.90;;
73023;SDS011;61199;47.526;8.538;2022-11-20T09:21:00;3.77;;;1.90;;
73023;SDS011;61199;47.526;8.538;2022-11-20T09:23:30;2.70;;;1.90;;
73023;SDS011;61199;47.526;8.538;2022-11-20T09:26:01;2.70;;;1.70;;
73023;SDS011;61199;47.526;8.538;2022-11-20T09:28:29;2.60;;;2.00;;
73023;SDS011;61199;47.526;8.538;2022-11-20T09:30:56;3.63;;;2.00;;
73023;SDS011;61199;47.526;8.538;2022-11-20T09:33:22;8.00;;;2.40;;
73023;SDS011;61199;47.526;8.538;2022-11-20T09:35:48;5.60;;;2.30;;
73023;SDS011;61199;47.526;8.538;2022-11-20T09:38:15;6.30;;;1.70;;
73023;SDS011;61199;47.526;8.538;2022-11-20T09:40:56;4.10;;;2.53;;
73023;SDS011;61199;47.526;8.538;2022-11-20T09:44:00;3.67;;;1.97;;
73023;SDS011;61199;47.526;8.538;2022-11-20T09:46:29;3.10;;;1.80;;
73023;SDS011;61199;47.526;8.538;2022-11-20T09:52:01;4.37;;;2.00;;
73023;SDS011;61199;47.526;8.538;2022-11-20T09:54:51;3.93;;;2.13;;
73023;SDS011;61199;47.526;8.538;2022-11-20T09:57:21;2.90;;;2.33;;
73023;SDS011;61199;47.526;8.538;2022-11-20T09:59:53;4.73;;;2.40;;
73023;SDS011;61199;47.526;8.538;2022-11-20T10:02:28;3.73;;;2.30;;
73023;SDS011;61199;47.526;8.538;2022-11-20T10:05:05;6.13;;;2.50;;
73023;SDS011;61199;47.526;8.538;2022-11-20T10:10:33;5.60;;;2.13;;
73023;SDS011;61199;47.526;8.538;2022-11-20T10:13:30;4.10;;;1.83;;
73023;SDS011;61199;47.526;8.538;2022-11-20T10:19:08;3.40;;;2.50;;
73023;SDS011;61199;47.526;8.538;2022-11-20T10:24:44;2.90;;;2.17;;
73023;SDS011;61199;47.526;8.538;2022-11-20T10:32:39;3.83;;;2.20;;
73023;SDS011;61199;47.526;8.538;2022-11-20T10:38:02;2.70;;;1.90;;
73023;SDS011;61199;47.526;8.538;2022-11-20T10:40:43;2.70;;;1.70;;
73023;SDS011;61199;47.526;8.538;2022-11-20T10:45:53;4.57;;;1.80;;
73023;SDS011;61199;47.526;8.538;2022-11-20T10:48:25;3.60;;;1.93;;
73023;SDS011;61199;47.526;8.538;2022-11-20T10:56:38;4.60;;;2.10;;
73023;SDS011;61199;47.526;8.538;2022-11-20T11:02:21;2.30;;;1.73;;
73023;SDS011;61199;47.526;8.538;2022-11-20T11:04:58;3.53;;;1.50;;
73023;SDS011;61199;47.526;8.538;2022-11-20T11:07:40;3.73;;;2.10;;
73023;SDS011;61199;47.526;8.538;2022-11-20T11:10:16;8.83;;;2.30;;
73023;SDS011;61199;47.526;8.538;2022-11-20T11:12:52;3.63;;;2.30;;
73023;SDS011;61199;47.526;8.538;2022-11-20T11:15:29;3.40;;;2.23;;
73023;SDS011;61199;47.526;8.538;2022-11-20T11:18:02;2.20;;;1.80;;
73023;SDS011;61199;47.526;8.538;2022-11-20T11:20:29;3.07;;;1.70;;
73023;SDS011;61199;47.526;8.538;2022-11-20T11:22:56;5.30;;;2.07;;
73023;SDS011;61199;47.526;8.538;2022-11-20T11:25:29;6.93;;;2.20;;
73023;SDS011;61199;47.526;8.538;2022-11-20T11:28:18;8.60;;;2.87;;
73023;SDS011;61199;47.526;8.538;2022-11-20T11:30:50;10.30;;;2.30;;
73023;SDS011;61199;47.526;8.538;2022-11-20T11:33:19;3.23;;;1.80;;
73023;SDS011;61199;47.526;8.538;2022-11-20T11:35:48;4.60;;;1.77;;
73023;SDS011;61199;47.526;8.538;2022-11-20T11:41:03;10.90;;;2.23;;
73023;SDS011;61199;47.526;8.538;2022-11-20T11:43:32;5.23;;;1.67;;
73023;SDS011;61199;47.526;8.538;2022-11-20T11:46:26;1.80;;;1.37;;
73023;SDS011;61199;47.526;8.538;2022-11-20T11:49:08;3.40;;;1.63;;
73023;SDS011;61199;47.526;8.538;2022-11-20T11:54:45;2.70;;;1.63;;
73023;SDS011;61199;47.526;8.538;2022-11-20T11:57:20;5.47;;;1.70;;
73023;SDS011;61199;47.526;8.538;2022-11-20T12:00:03;4.83;;;1.73;;
73023;SDS011;61199;47.526;8.538;2022-11-20T12:05:23;2.07;;;1.60;;
73023;SDS011;61199;47.526;8.538;2022-11-20T12:08:15;2.70;;;1.40;;
73023;SDS011;61199;47.526;8.538;2022-11-20T12:11:06;2.70;;;1.50;;
73023;SDS011;61199;47.526;8.538;2022-11-20T12:13:54;2.40;;;1.40;;
73023;SDS011;61199;47.526;8.538;2022-11-20T12:16:24;4.33;;;1.47;;
73023;SDS011;61199;47.526;8.538;2022-11-20T12:18:51;1.93;;;1.40;;
73023;SDS011;61199;47.526;8.538;2022-11-20T12:21:19;5.57;;;2.20;;
73023;SDS011;61199;47.526;8.538;2022-11-20T12:37:29;5.47;;;1.80;;
73023;SDS011;61199;47.526;8.538;2022-11-20T12:43:21;6.20;;;2.07;;
73023;SDS011;61199;47.526;8.538;2022-11-20T12:46:14;4.60;;;1.83;;
73023;SDS011;61199;47.526;8.538;2022-11-20T12:53:57;3.53;;;1.70;;
73023;SDS011;61199;47.526;8.538;2022-11-20T12:59:14;3.37;;;1.53;;
73023;SDS011;61199;47.526;8.538;2022-11-20T13:01:45;2.80;;;1.63;;
73023;SDS011;61199;47.526;8.538;2022-11-20T13:07:09;4.30;;;1.70;;
73023;SDS011;61199;47.526;8.538;2022-11-20T13:09:42;3.47;;;1.30;;
73023;SDS011;61199;47.526;8.538;2022-11-20T13:12:14;10.53;;;2.10;;
73023;SDS011;61199;47.526;8.538;2022-11-20T13:15:02;3.00;;;1.57;;
73023;SDS011;61199;47.526;8.538;2022-11-20T13:20:18;7.33;;;3.13;;
73023;SDS011;61199;47.526;8.538;2022-11-20T13:22:48;5.40;;;1.80;;
73023;SDS011;61199;47.526;8.538;2022-11-20T13:28:01;4.93;;;2.43;;
73023;SDS011;61199;47.526;8.538;2022-11-20T13:30:30;3.70;;;2.27;;
73023;SDS011;61199;47.526;8.538;2022-11-20T13:38:10;3.83;;;1.63;;
73023;SDS011;61199;47.526;8.538;2022-11-20T13:41:00;2.93;;;1.60;;
73023;SDS011;61199;47.526;8.538;2022-11-20T13:43:49;3.53;;;1.97;;
73023;SDS011;61199;47.526;8.538;2022-11-20T13:46:18;2.93;;;1.60;;
73023;SDS011;61199;47.526;8.538;2022-11-20T13:48:53;8.10;;;2.30;;
73023;SDS011;61199;47.526;8.538;2022-11-20T13:54:03;2.07;;;1.33;;
73023;SDS011;61199;47.526;8.538;2022-11-20T13:56:48;3.20;;;1.50;;
73023;SDS011;61199;47.526;8.538;2022-11-20T13:59:48;5.43;;;1.40;;
73023;SDS011;61199;47.526;8.538;2022-11-20T14:02:31;3.67;;;1.57;;
73023;SDS011;61199;47.526;8.538;2022-11-20T14:04:57;2.67;;;1.60;;
73023;SDS011;61199;47.526;8.538;2022-11-20T14:07:27;3.07;;;1.50;;
73023;SDS011;61199;47.526;8.538;2022-11-20T14:10:01;5.70;;;1.77;;
73023;SDS011;61199;47.526;8.538;2022-11-20T14:12:31;4.40;;;1.33;;
73023;SDS011;61199;47.526;8.538;2022-11-20T14:14:59;3.70;;;1.70;;
73023;SDS011;61199;47.526;8.538;2022-11-20T14:20:02;1.70;;;1.10;;
73023;SDS011;61199;47.526;8.538;2022-11-20T14:22:38;4.83;;;1.60;;
73023;SDS011;61199;47.526;8.538;2022-11-20T14:27:40;6.63;;;1.50;;
73023;SDS011;61199;47.526;8.538;2022-11-20T14:30:15;3.70;;;1.50;;
73023;SDS011;61199;47.526;8.538;2022-11-20T14:32:47;3.00;;;1.50;;
73023;SDS011;61199;47.526;8.538;2022-11-20T14:35:23;3.47;;;1.30;;
73023;SDS011;61199;47.526;8.538;2022-11-20T14:37:51;6.93;;;1.60;;
73023;SDS011;61199;47.526;8.538;2022-11-20T14:40:22;8.23;;;1.63;;
73023;SDS011;61199;47.526;8.538;2022-11-20T14:42:51;3.27;;;1.70;;
73023;SDS011;61199;47.526;8.538;2022-11-20T14:45:18;2.53;;;1.60;;
73023;SDS011;61199;47.526;8.538;2022-11-20T14:47:45;4.00;;;1.50;;
73023;SDS011;61199;47.526;8.538;2022-11-20T14:55:24;2.70;;;1.73;;
73023;SDS011;61199;47.526;8.538;2022-11-20T14:57:58;10.93;;;1.90;;
73023;SDS011;61199;47.526;8.538;2022-11-20T15:00:29;8.30;;;1.60;;
73023;SDS011;61199;47.526;8.538;2022-11-20T15:02:58;4.20;;;1.70;;
73023;SDS011;61199;47.526;8.538;2022-11-20T15:05:36;2.20;;;1.67;;
73023;SDS011;61199;47.526;8.538;2022-11-20T15:08:11;2.60;;;1.57;;
73023;SDS011;61199;47.526;8.538;2022-11-20T15:10:39;3.50;;;1.63;;
73023;SDS011;61199;47.526;8.538;2022-11-20T15:13:20;3.57;;;1.37;;
73023;SDS011;61199;47.526;8.538;2022-11-20T15:16:03;8.73;;;2.07;;
73023;SDS011;61199;47.526;8.538;2022-11-20T15:18:36;7.07;;;1.83;;
73023;SDS011;61199;47.526;8.538;2022-11-20T15:21:13;13.93;;;2.70;;
73023;SDS011;61199;47.526;8.538;2022-11-20T15:23:40;5.07;;;1.40;;
73023;SDS011;61199;47.526;8.538;2022-11-20T15:26:08;2.70;;;1.37;;
73023;SDS011;61199;47.526;8.538;2022-11-20T15:28:42;2.60;;;1.27;;
73023;SDS011;61199;47.526;8.538;2022-11-20T15:31:14;4.90;;;1.73;;
73023;SDS011;61199;47.526;8.538;2022-11-20T15:33:41;8.43;;;1.87;;
73023;SDS011;61199;47.526;8.538;2022-11-20T15:36:08;6.73;;;1.70;;
73023;SDS011;61199;47.526;8.538;2022-11-20T15:38:36;5.87;;;1.00;;
73023;SDS011;61199;47.526;8.538;2022-11-20T15:41:03;8.53;;;1.60;;
73023;SDS011;61199;47.526;8.538;2022-11-20T15:43:29;5.40;;;1.83;;
73023;SDS011;61199;47.526;8.538;2022-11-20T15:46:15;2.73;;;1.53;;
73023;SDS011;61199;47.526;8.538;2022-11-20T15:48:51;4.20;;;2.17;;
73023;SDS011;61199;47.526;8.538;2022-11-20T15:53:55;5.60;;;1.80;;
73023;SDS011;61199;47.526;8.538;2022-11-20T15:56:22;3.77;;;1.53;;
73023;SDS011;61199;47.526;8.538;2022-11-20T15:58:49;4.90;;;1.67;;
73023;SDS011;61199;47.526;8.538;2022-11-20T16:01:16;5.23;;;2.17;;
73023;SDS011;61199;47.526;8.538;2022-11-20T16:03:44;5.07;;;1.73;;
73023;SDS011;61199;47.526;8.538;2022-11-20T16:06:11;3.33;;;1.50;;
73023;SDS011;61199;47.526;8.538;2022-11-20T16:08:37;3.30;;;1.53;;
73023;SDS011;61199;47.526;8.538;2022-11-20T16:11:04;6.40;;;2.27;;
73023;SDS011;61199;47.526;8.538;2022-11-20T16:13:31;4.93;;;2.23;;
73023;SDS011;61199;47.526;8.538;2022-11-20T16:16:23;5.80;;;1.93;;
73023;SDS011;61199;47.526;8.538;2022-11-20T16:18:56;4.60;;;1.97;;
73023;SDS011;61199;47.526;8.538;2022-11-20T16:21:23;4.63;;;1.87;;
73023;SDS011;61199;47.526;8.538;2022-11-20T16:23:59;2.50;;;1.57;;
73023;SDS011;61199;47.526;8.538;2022-11-20T16:26:26;4.80;;;2.20;;
73023;SDS011;61199;47.526;8.538;2022-11-20T16:28:53;5.23;;;2.37;;
73023;SDS011;61199;47.526;8.538;2022-11-20T16:31:20;6.90;;;2.30;;
73023;SDS011;61199;47.526;8.538;2022-11-20T16:33:51;6.13;;;2.10;;
73023;SDS011;61199;47.526;8.538;2022-11-20T16:36:19;6.20;;;2.03;;
73023;SDS011;61199;47.526;8.538;2022-11-20T16:38:46;7.87;;;3.00;;
73023;SDS011;61199;47.526;8.538;2022-11-20T16:41:18;8.40;;;3.87;;
73023;SDS011;61199;47.526;8.538;2022-11-20T16:43:45;7.60;;;4.50;;
73023;SDS011;61199;47.526;8.538;2022-11-20T16:46:17;11.30;;;4.90;;